createdAt,value
2014-11-27T13:37:17.888Z,100093
2014-11-27T13:37:36.294Z,100088
2014-11-27T13:37:54.622Z,100096
2014-11-27T13:38:12.388Z,100085
2014-11-27T13:38:30.953Z,100093
2014-11-27T13:38:48.656Z,100096
2014-11-27T13:39:06.500Z,100082
2014-11-27T13:39:24.861Z,100088
2014-11-27T13:39:42.658Z,100099
2014-11-27T13:40:01.064Z,100088
2014-11-27T13:40:18.830Z,100085
2014-11-27T13:40:36.599Z,100096
2014-11-27T13:40:55.114Z,100088
2014-11-27T13:41:13.646Z,100085
2014-11-27T13:41:31.491Z,100085
2014-11-27T13:41:49.866Z,100082
2014-11-27T13:42:08.241Z,100091
2014-11-27T13:42:26.023Z,100080
2014-11-27T13:42:43.807Z,100082
2014-11-27T13:43:01.744Z,100080
2014-11-27T13:43:19.572Z,100085
2014-11-27T13:43:37.357Z,100077
2014-11-27T13:43:55.216Z,100074
2014-11-27T13:44:12.919Z,100088
2014-11-27T13:44:30.685Z,100082
2014-11-27T13:44:49.156Z,100088
2014-11-27T13:45:07.593Z,100088
2014-11-27T13:45:25.437Z,100080
2014-11-27T13:45:43.408Z,100077
2014-11-27T13:46:01.220Z,100082
2014-11-27T13:46:19.783Z,100082
2014-11-27T13:46:37.564Z,100088
2014-11-27T13:46:56.035Z,100096
2014-11-27T13:47:14.519Z,100079
2014-11-27T13:47:33.081Z,100088
2014-11-27T13:47:50.272Z,100091
2014-11-27T13:48:08.803Z,100099
2014-11-27T13:48:27.241Z,100088
2014-11-27T13:48:45.756Z,100088
2014-11-27T13:49:03.477Z,100079
2014-11-27T13:49:21.477Z,100085
2014-11-27T13:49:39.821Z,100077
2014-11-27T13:49:58.355Z,100079
2014-11-27T13:50:16.761Z,100079
2014-11-27T13:50:35.214Z,100077
2014-11-27T13:50:52.918Z,100085
2014-11-27T13:51:10.701Z,100079
2014-11-27T13:51:28.591Z,100079
2014-11-27T13:51:46.920Z,100088
2014-11-27T13:52:04.782Z,100082
2014-11-27T13:52:23.219Z,100074
2014-11-27T13:52:41.063Z,100091
2014-11-27T13:52:58.813Z,100088
2014-11-27T13:53:17.300Z,100079
2014-11-27T13:53:35.737Z,100088
2014-11-27T13:53:54.175Z,100077
2014-11-27T13:54:12.708Z,100085
2014-11-27T13:54:31.067Z,100088
2014-11-27T13:54:49.395Z,100074
2014-11-27T13:55:07.817Z,100074
2014-11-27T13:55:25.648Z,100085
2014-11-27T13:55:43.351Z,100074
2014-11-27T13:56:01.726Z,100077
2014-11-27T13:56:19.541Z,100066
2014-11-27T13:56:37.978Z,100066
2014-11-27T13:56:56.322Z,100079
2014-11-27T13:57:14.807Z,100091
2014-11-27T13:57:33.199Z,100085
2014-11-27T13:57:51.652Z,100085
2014-11-27T13:58:08.855Z,100082
2014-11-27T13:58:26.796Z,100085
2014-11-27T13:58:44.343Z,100088
2014-11-27T13:59:02.780Z,100077
2014-11-27T13:59:21.312Z,100085
2014-11-27T13:59:39.736Z,100077
2014-11-27T13:59:58.049Z,100088
2014-11-27T14:00:16.533Z,100077
2014-11-27T14:00:34.863Z,100079
2014-11-27T14:00:53.301Z,100077
2014-11-27T14:01:11.067Z,100077
2014-11-27T14:01:28.863Z,100077
2014-11-27T14:01:47.350Z,100079
2014-11-27T14:02:05.115Z,100077
2014-11-27T14:02:23.428Z,100064
2014-11-27T14:02:41.962Z,100079
2014-11-27T14:03:00.322Z,100091
2014-11-27T14:03:18.931Z,100069
2014-11-27T14:03:37.337Z,100074
2014-11-27T14:03:55.167Z,100079
2014-11-27T14:04:13.042Z,100079
2014-11-27T14:04:31.558Z,100074
2014-11-27T14:04:49.873Z,100058
2014-11-27T14:05:08.389Z,100061
2014-11-27T14:05:26.733Z,100074
2014-11-27T14:05:45.248Z,100079
2014-11-27T14:06:03.188Z,100064
2014-11-27T14:06:21.594Z,100069
2014-11-27T14:06:39.938Z,100064
2014-11-27T14:06:57.815Z,100074
2014-11-27T14:07:16.237Z,100064
2014-11-27T14:07:34.252Z,100074
2014-11-27T14:07:52.549Z,100077
2014-11-27T14:08:10.896Z,100074
2014-11-27T14:08:29.349Z,100066
2014-11-27T14:08:47.771Z,100061
2014-11-27T14:09:05.774Z,100064
2014-11-27T14:09:24.290Z,100064
2014-11-27T14:09:42.727Z,100064
2014-11-27T14:10:00.571Z,100066
2014-11-27T14:10:19.198Z,100064
2014-11-27T14:10:37.479Z,100066
2014-11-27T14:10:56.042Z,100064
2014-11-27T14:11:14.576Z,100058
2014-11-27T14:11:32.982Z,100058
2014-11-27T14:11:51.467Z,100064
2014-11-27T14:12:09.310Z,100061
2014-11-27T14:12:27.890Z,100052
2014-11-27T14:12:46.344Z,100064
2014-11-27T14:13:04.234Z,100055
2014-11-27T14:13:22.159Z,100064
2014-11-27T14:13:39.878Z,100064
2014-11-27T14:13:58.393Z,100052
2014-11-27T14:14:16.784Z,100066
2014-11-27T14:14:35.192Z,100061
2014-11-27T14:14:53.552Z,100064
2014-11-27T14:15:11.333Z,100066
2014-11-27T14:15:29.773Z,100064
2014-11-27T14:15:48.242Z,100061
2014-11-27T14:16:06.289Z,100058
2014-11-27T14:16:24.633Z,100066
2014-11-27T14:16:42.979Z,100061
2014-11-27T14:17:00.807Z,100047
2014-11-27T14:17:19.291Z,100050
2014-11-27T14:17:37.668Z,100058
2014-11-27T14:17:55.434Z,100058
2014-11-27T14:18:13.902Z,100058
2014-11-27T14:18:32.824Z,100061
2014-11-27T14:18:50.576Z,100055
2014-11-27T14:19:09.061Z,100055
2014-11-27T14:19:26.998Z,100055
2014-11-27T14:19:45.579Z,100050
2014-11-27T14:20:03.798Z,100069
2014-11-27T14:20:22.204Z,100052
2014-11-27T14:20:40.111Z,100061
2014-11-27T14:20:58.489Z,100055
2014-11-27T14:21:16.895Z,100066
2014-11-27T14:21:34.676Z,100058
2014-11-27T14:21:53.178Z,100050
2014-11-27T14:22:10.912Z,100074
2014-11-27T14:22:29.459Z,100066
2014-11-27T14:22:47.241Z,100055
2014-11-27T14:23:05.618Z,100066
2014-11-27T14:23:24.024Z,100066
2014-11-27T14:23:41.821Z,100088
2014-11-27T14:23:59.121Z,100066
2014-11-27T14:24:16.902Z,100069
2014-11-27T14:24:35.433Z,100069
2014-11-27T14:24:53.730Z,100061
2014-11-27T14:25:12.186Z,100077
2014-11-27T14:25:30.592Z,100063
2014-11-27T14:25:49.045Z,100077
2014-11-27T14:26:07.422Z,100066
2014-11-27T14:26:25.719Z,100066
2014-11-27T14:26:43.688Z,100061
2014-11-27T14:27:02.032Z,100066
2014-11-27T14:27:20.457Z,100041
2014-11-27T14:27:38.910Z,100063
2014-11-27T14:27:57.629Z,100061
2014-11-27T14:28:15.271Z,100055
2014-11-27T14:28:33.709Z,100058
2014-11-27T14:28:52.287Z,100063
2014-11-27T14:29:10.052Z,100055
2014-11-27T14:29:27.898Z,100063
2014-11-27T14:29:45.867Z,100061
2014-11-27T14:30:04.336Z,100055
2014-11-27T14:30:22.089Z,100058
2014-11-27T14:30:40.589Z,100061
2014-11-27T14:30:59.182Z,100050
2014-11-27T14:31:16.636Z,100055
2014-11-27T14:31:35.200Z,100052
2014-11-27T14:31:53.778Z,100047
2014-11-27T14:32:12.106Z,100074
2014-11-27T14:32:29.828Z,100047
2014-11-27T14:32:47.812Z,100047
2014-11-27T14:33:05.781Z,100058
2014-11-27T14:33:23.516Z,100047
2014-11-27T14:33:42.033Z,100055
2014-11-27T14:34:00.580Z,100066
2014-11-27T14:34:19.002Z,100055
2014-11-27T14:34:37.551Z,100066
2014-11-27T14:34:55.988Z,100063
2014-11-27T14:35:13.691Z,100061
2014-11-27T14:35:32.207Z,100058
2014-11-27T14:35:50.584Z,100061
2014-11-27T14:36:08.568Z,100058
2014-11-27T14:36:35.459Z,100052
2014-11-27T14:36:53.354Z,100055
2014-11-27T14:37:11.932Z,100063
2014-11-27T14:37:30.463Z,100055
2014-11-27T14:37:48.403Z,100058
2014-11-27T14:38:05.934Z,100069
2014-11-27T14:38:24.278Z,100052
2014-11-27T14:38:42.934Z,100052
2014-11-27T14:39:00.483Z,100050
2014-11-27T14:39:18.905Z,100050
2014-11-27T14:39:37.342Z,100047
2014-11-27T14:39:56.017Z,100066
2014-11-27T14:40:14.329Z,100063
2014-11-27T14:40:31.892Z,100052
2014-11-27T14:40:50.408Z,100063
2014-11-27T14:41:07.597Z,100055
2014-11-27T14:41:37.238Z,100061
2014-11-27T14:41:55.615Z,100064
2014-11-27T14:42:17.787Z,100052
2014-11-27T19:59:14.408Z,100082
2014-11-27T19:59:32.924Z,100069
2014-11-27T19:59:50.877Z,100074
2014-11-27T20:00:08.814Z,100079
2014-11-27T20:00:27.474Z,100069
2014-11-27T20:00:44.974Z,100082
2014-11-27T20:01:03.521Z,100079
2014-11-27T20:01:22.055Z,100069
2014-11-27T20:01:40.602Z,100079
2014-11-27T20:01:59.117Z,100066
2014-11-27T20:02:16.867Z,100074
2014-11-27T20:02:35.447Z,100061
2014-11-27T20:02:53.760Z,100058
2014-11-27T20:03:12.354Z,100069
2014-11-27T20:03:29.622Z,100066
2014-11-27T20:03:48.154Z,100063
2014-11-27T20:04:06.622Z,100061
2014-11-27T20:04:24.513Z,100069
2014-11-27T20:04:43.187Z,100066
2014-11-27T20:05:01.046Z,100058
2014-11-27T20:05:19.156Z,100082
2014-11-27T20:05:37.595Z,100058
2014-11-27T20:05:55.376Z,100066
2014-11-27T20:06:13.392Z,100063
2014-11-27T20:06:30.736Z,100074
2014-11-27T20:06:49.317Z,100076
2014-11-27T20:07:07.926Z,100079
2014-11-27T20:07:26.723Z,100069
2014-11-27T20:07:44.053Z,100079
2014-11-27T20:08:02.444Z,100079
2014-11-27T20:08:21.100Z,100074
2014-11-27T20:08:39.334Z,100069
2014-11-27T20:08:57.649Z,100079
2014-11-27T20:09:15.508Z,100076
2014-11-27T20:09:34.040Z,100069
2014-11-27T20:09:52.605Z,100069
2014-11-27T20:10:11.230Z,100076
2014-11-27T20:10:29.043Z,100079
2014-11-27T20:10:46.855Z,100063
2014-11-27T20:11:05.466Z,100074
2014-11-27T20:11:24.185Z,100082
2014-11-27T20:11:42.670Z,100069
2014-11-27T20:12:01.109Z,100074
2014-11-27T20:12:19.515Z,100076
2014-11-27T20:12:37.406Z,100058
2014-11-27T20:12:55.937Z,100082
2014-11-27T20:13:13.893Z,100066
2014-11-27T20:13:32.003Z,100066
2014-11-27T20:13:49.346Z,100066
2014-11-27T20:14:08.006Z,100069
2014-11-27T20:14:26.178Z,100063
2014-11-27T20:14:44.146Z,100066
2014-11-27T20:15:02.459Z,100079
2014-11-27T20:15:20.961Z,100066
2014-11-27T20:15:39.086Z,100074
2014-11-27T20:15:56.742Z,100074
2014-11-27T20:16:15.308Z,100066
2014-11-27T20:16:34.058Z,100076
2014-11-27T20:16:51.823Z,100076
2014-11-27T20:17:09.964Z,100066
2014-11-27T20:17:27.200Z,100076
2014-11-27T20:17:45.841Z,100066
2014-11-27T20:18:04.341Z,100076
2014-11-27T20:18:44.876Z,100058
2014-11-27T20:19:02.017Z,100069
2014-11-27T20:19:20.360Z,100063
2014-11-27T20:19:38.407Z,100060
2014-11-27T20:19:56.206Z,100066
2014-11-27T20:20:14.175Z,100079
2014-11-27T20:20:32.300Z,100058
2014-11-27T20:20:49.818Z,100079
2014-11-27T20:21:07.818Z,100069
2014-11-27T20:21:25.833Z,100063
2014-11-27T20:21:43.802Z,100074
2014-11-27T20:22:02.413Z,100066
2014-11-27T20:22:20.945Z,100074
2014-11-27T20:22:39.132Z,100066
2014-11-27T20:22:58.010Z,100055
2014-11-27T20:23:16.994Z,100066
2014-11-27T20:23:35.494Z,100061
2014-11-27T20:23:53.432Z,100074
2014-11-27T20:24:11.513Z,100069
2014-11-27T20:24:33.216Z,100061
2014-11-27T20:24:52.529Z,100074
2014-11-27T20:25:11.781Z,100066
2014-11-27T20:25:30.359Z,100063
2014-11-27T20:25:48.718Z,100082
2014-11-27T20:26:07.471Z,100061
2014-11-27T20:26:26.815Z,100066
2014-11-27T20:26:46.159Z,100074
2014-11-27T20:27:04.331Z,100063
2014-11-27T20:27:22.317Z,100069
2014-11-27T20:27:40.426Z,100074
2014-11-27T20:27:57.723Z,100076
2014-11-27T20:28:15.289Z,100074
2014-11-27T20:28:33.179Z,100074
2014-11-27T20:28:51.101Z,100069
2014-11-27T20:29:09.179Z,100082
2014-11-27T20:29:28.009Z,100074
2014-11-27T20:29:51.306Z,100063
2014-11-27T20:30:09.041Z,100069
2014-11-27T20:30:27.011Z,100074
2014-11-27T20:30:45.824Z,100076
2014-11-27T20:31:03.699Z,100074
2014-11-27T20:31:22.171Z,100079
2014-11-27T20:31:40.999Z,100074
2014-11-27T20:31:59.671Z,100063
2014-11-27T20:32:17.764Z,100079
2014-11-27T20:32:36.360Z,100079
2014-11-27T20:32:53.938Z,100079
2014-11-27T20:33:12.735Z,100069
2014-11-27T20:33:30.738Z,100063
2014-11-27T20:33:50.129Z,100079
2014-11-27T20:34:07.879Z,100074
2014-11-27T20:34:24.816Z,100082
2014-11-27T20:34:43.131Z,100066
2014-11-27T20:35:02.068Z,100076
2014-11-27T20:35:24.084Z,100074
2014-11-27T20:35:43.148Z,100069
2014-11-27T20:36:01.555Z,100087
2014-11-27T20:36:20.180Z,100085
2014-11-27T20:36:39.151Z,100066
2014-11-27T20:36:57.776Z,100074
2014-11-27T20:37:17.073Z,100074
2014-11-27T20:37:35.714Z,100079
2014-11-27T20:37:54.560Z,100074
2014-11-27T20:38:13.435Z,100061
2014-11-27T20:38:35.357Z,100076
2014-11-27T20:38:53.844Z,100069
2014-11-27T20:39:11.844Z,100063
2014-11-27T20:39:30.547Z,100069
2014-11-27T20:39:48.877Z,100069
2014-11-27T20:40:06.674Z,100058
2014-11-27T20:40:24.705Z,100066
2014-11-27T20:40:43.596Z,100060
2014-11-27T20:41:02.443Z,100066
2014-11-27T20:41:20.333Z,100063
2014-11-27T20:41:37.786Z,100041
2014-11-27T20:41:56.413Z,100058
2014-11-27T20:42:14.398Z,100063
2014-11-27T20:42:32.601Z,100066
2014-11-27T20:42:50.945Z,100066
2014-11-27T20:43:09.525Z,100060
2014-11-27T20:43:27.509Z,100058
2014-11-27T20:43:45.869Z,100060
2014-11-27T20:44:03.825Z,100074
2014-11-27T20:44:22.668Z,100052
2014-11-27T20:44:40.543Z,100060
2014-11-27T20:44:57.778Z,100058
2014-11-27T20:45:15.983Z,100055
2014-11-27T20:45:34.202Z,100058
2014-11-27T20:45:52.733Z,100055
2014-11-27T20:46:10.720Z,100063
2014-11-27T20:46:28.205Z,100058
2014-11-27T20:46:45.986Z,100052
2014-11-27T20:47:04.048Z,100055
2014-11-27T20:47:22.597Z,100060
2014-11-27T20:47:40.691Z,100074
2014-11-27T20:47:59.332Z,100058
2014-11-27T20:48:16.615Z,100055
2014-11-27T20:48:34.490Z,100055
2014-11-27T20:48:52.646Z,100055
2014-11-27T20:49:11.131Z,100060
2014-11-27T20:49:28.962Z,100044
2014-11-27T20:49:47.602Z,100063
2014-11-27T20:50:03.368Z,100069
2014-11-27T20:50:21.886Z,100047
2014-11-27T20:50:47.182Z,100069
2014-11-27T20:51:07.136Z,100055
